createdAt,value
2022-09-12T00:01:23.327Z,9.95
2022-09-12T00:03:58.126Z,9.43
2022-09-12T00:06:34.974Z,7.22
2022-09-12T00:09:08.962Z,10.00
2022-09-12T00:11:38.815Z,9.13
2022-09-12T00:14:08.007Z,12.85
2022-09-12T00:16:37.213Z,9.65
2022-09-12T00:19:06.080Z,11.30
2022-09-12T00:21:35.311Z,12.35
2022-09-12T00:24:03.530Z,8.82
2022-09-12T00:26:31.771Z,13.85
2022-09-12T00:28:59.871Z,9.68
2022-09-12T00:31:27.824Z,9.10
2022-09-12T00:33:58.195Z,9.07
2022-09-12T00:36:27.040Z,11.98
2022-09-12T00:38:54.928Z,12.63
2022-09-12T00:41:29.354Z,11.13
2022-09-12T00:44:00.589Z,9.27
2022-09-12T00:46:39.293Z,7.68
2022-09-12T00:49:15.573Z,7.65
2022-09-12T00:52:00.790Z,4.75
2022-09-12T00:54:32.512Z,7.72
2022-09-12T00:57:04.502Z,8.98
2022-09-12T00:59:41.904Z,11.07
2022-09-12T01:02:10.011Z,8.82
2022-09-12T01:04:40.845Z,6.15
2022-09-12T01:07:09.125Z,10.35
2022-09-12T01:09:38.028Z,8.07
2022-09-12T01:12:06.684Z,12.60
2022-09-12T01:14:35.195Z,8.32
2022-09-12T01:17:03.193Z,9.55
2022-09-12T01:19:36.858Z,7.28
2022-09-12T01:22:26.665Z,8.30
2022-09-12T01:25:31.144Z,11.32
2022-09-12T01:28:10.539Z,10.48
2022-09-12T01:31:00.988Z,8.32
2022-09-12T01:33:33.238Z,6.43
2022-09-12T01:36:07.369Z,4.97
2022-09-12T01:39:00.903Z,7.65
2022-09-12T01:44:31.481Z,4.40
2022-09-12T01:47:29.477Z,6.63
2022-09-12T01:50:08.354Z,8.82
2022-09-12T01:52:46.476Z,7.45
2022-09-12T01:55:29.502Z,5.65
2022-09-12T01:58:03.376Z,10.02
2022-09-12T02:00:34.747Z,10.82
2022-09-12T02:03:11.648Z,16.95
2022-09-12T02:05:48.916Z,10.52
2022-09-12T02:08:27.011Z,7.38
2022-09-12T02:11:02.480Z,8.52
2022-09-12T02:13:36.521Z,7.97
2022-09-12T02:16:31.218Z,12.77
2022-09-12T02:19:11.182Z,10.85
2022-09-12T02:21:42.484Z,8.68
2022-09-12T02:24:12.669Z,9.82
2022-09-12T02:27:04.346Z,8.43
2022-09-12T02:29:32.332Z,11.98
2022-09-12T02:32:06.331Z,9.00
2022-09-12T02:35:01.943Z,12.18
2022-09-12T02:37:49.388Z,10.90
2022-09-12T02:40:18.635Z,9.15
2022-09-12T02:42:46.781Z,6.82
2022-09-12T02:45:14.893Z,8.18
2022-09-12T02:47:51.495Z,9.18
2022-09-12T02:50:20.091Z,10.00
2022-09-12T02:52:48.680Z,6.32
2022-09-12T02:55:17.128Z,7.05
2022-09-12T02:57:44.921Z,7.15
2022-09-12T03:00:13.467Z,7.47
2022-09-12T03:03:01.930Z,10.13
2022-09-12T03:05:37.599Z,7.72
2022-09-12T03:08:21.646Z,15.32
2022-09-12T03:11:00.977Z,6.80
2022-09-12T03:13:40.404Z,7.43
2022-09-12T03:16:44.985Z,5.93
2022-09-12T03:19:53.954Z,9.13
2022-09-12T03:22:36.401Z,10.35
2022-09-12T03:25:19.143Z,12.50
2022-09-12T03:27:56.371Z,9.43
2022-09-12T03:30:24.297Z,7.30
2022-09-12T03:32:54.393Z,11.00
2022-09-12T03:35:40.771Z,7.82
2022-09-12T03:38:08.638Z,7.25
2022-09-12T03:40:37.659Z,9.43
2022-09-12T03:43:07.977Z,6.95
2022-09-12T03:45:37.194Z,8.32
2022-09-12T03:48:06.321Z,11.95
2022-09-12T03:50:34.474Z,6.32
2022-09-12T03:53:03.689Z,9.73
2022-09-12T03:55:31.477Z,9.25
2022-09-12T03:57:59.429Z,14.50
2022-09-12T04:00:27.343Z,9.52
2022-09-12T04:02:56.998Z,9.82
2022-09-12T04:05:25.863Z,7.10
2022-09-12T04:07:53.711Z,7.10
2022-09-12T04:10:22.698Z,8.35
2022-09-12T04:12:50.548Z,11.18
2022-09-12T04:15:18.414Z,9.65
2022-09-12T04:17:46.221Z,11.45
2022-09-12T04:20:13.986Z,7.68
2022-09-12T04:22:41.828Z,9.13
2022-09-12T04:25:09.837Z,10.73
2022-09-12T04:27:38.571Z,10.27
2022-09-12T04:30:07.142Z,8.85
2022-09-12T04:33:00.167Z,8.50
2022-09-12T04:35:28.638Z,6.63
2022-09-12T04:37:59.212Z,6.32
2022-09-12T04:40:28.996Z,9.65
2022-09-12T04:42:56.952Z,9.52
2022-09-12T04:45:25.002Z,8.82
2022-09-12T04:47:52.973Z,9.25
2022-09-12T04:50:20.774Z,8.65
2022-09-12T04:52:52.442Z,9.68
2022-09-12T04:55:21.469Z,9.30
2022-09-12T04:57:49.273Z,7.80
2022-09-12T05:00:17.205Z,6.32
2022-09-12T05:02:45.162Z,7.18
2022-09-12T05:05:12.940Z,7.95
2022-09-12T05:07:40.856Z,10.05
2022-09-12T05:10:09.410Z,8.88
2022-09-12T05:12:37.728Z,10.13
2022-09-12T05:15:06.516Z,9.38
2022-09-12T05:17:34.300Z,10.18
2022-09-12T05:20:03.231Z,12.40
2022-09-12T05:22:31.415Z,11.13
2022-09-12T05:24:59.361Z,8.38
2022-09-12T05:27:27.144Z,8.65
2022-09-12T05:29:55.289Z,13.50
2022-09-12T05:32:23.102Z,22.70
2022-09-12T05:34:51.007Z,9.38
2022-09-12T05:37:18.737Z,10.57
2022-09-12T05:39:46.541Z,13.85
2022-09-12T05:42:14.378Z,19.23
2022-09-12T05:44:42.132Z,19.88
2022-09-12T05:47:12.881Z,17.30
2022-09-12T05:49:40.678Z,17.65
2022-09-12T05:52:08.754Z,17.30
2022-09-12T05:54:36.563Z,13.30
2022-09-12T05:57:04.645Z,17.90
2022-09-12T05:59:32.532Z,13.50
2022-09-12T06:02:00.449Z,18.05
2022-09-12T06:04:28.326Z,12.55
2022-09-12T06:06:56.105Z,12.05
2022-09-12T06:09:48.801Z,8.80
2022-09-12T06:12:16.557Z,9.23
2022-09-12T06:14:44.324Z,9.55
2022-09-12T06:17:12.176Z,9.18
2022-09-12T06:19:39.943Z,12.65
2022-09-12T06:22:58.500Z,8.90
2022-09-12T06:25:26.530Z,6.40
2022-09-12T06:27:54.323Z,9.05
2022-09-12T06:30:25.366Z,8.38
2022-09-12T06:32:53.761Z,6.38
2022-09-12T06:35:21.747Z,4.60
2022-09-12T06:37:49.630Z,5.28
2022-09-12T06:40:17.482Z,6.80
2022-09-12T06:42:45.262Z,7.90
2022-09-12T06:45:27.501Z,6.07
2022-09-12T06:47:55.908Z,3.53
2022-09-12T06:50:23.959Z,5.35
2022-09-12T06:52:51.818Z,7.13
2022-09-12T06:55:21.018Z,1.92
2022-09-12T06:57:52.328Z,3.22
2022-09-12T07:00:20.121Z,3.30
2022-09-12T07:02:48.465Z,4.60
2022-09-12T07:05:16.385Z,4.43
2022-09-12T07:07:44.109Z,5.35
2022-09-12T07:10:12.307Z,5.72
2022-09-12T07:12:40.100Z,4.50
2022-09-12T07:15:08.495Z,4.75
2022-09-12T07:17:36.265Z,5.80
2022-09-12T07:20:04.261Z,5.07
2022-09-12T07:22:32.098Z,5.90
2022-09-12T07:24:59.949Z,6.75
2022-09-12T07:27:27.716Z,4.63
2022-09-12T07:29:56.003Z,3.85
2022-09-12T07:32:23.884Z,6.22
2022-09-12T07:34:52.326Z,3.65
2022-09-12T07:37:20.142Z,4.72
2022-09-12T07:39:47.928Z,3.60
2022-09-12T07:42:15.784Z,5.28
2022-09-12T07:44:44.516Z,5.75
2022-09-12T07:47:12.500Z,6.90
2022-09-12T07:49:40.329Z,4.45
2022-09-12T07:52:08.268Z,6.63
2022-09-12T07:54:36.614Z,3.58
2022-09-12T07:57:04.655Z,5.10
2022-09-12T07:59:51.284Z,3.75
2022-09-12T08:02:20.395Z,4.68
2022-09-12T08:04:49.235Z,4.82
2022-09-12T08:07:19.190Z,5.75
2022-09-12T08:09:47.520Z,4.28
2022-09-12T08:12:16.604Z,5.18
2022-09-12T08:14:44.428Z,6.10
2022-09-12T08:17:12.215Z,6.90
2022-09-12T08:19:39.989Z,2.83
2022-09-12T08:22:08.313Z,4.57
2022-09-12T08:25:01.157Z,5.53
2022-09-12T08:27:29.071Z,3.63
2022-09-12T08:29:56.902Z,4.70
2022-09-12T08:32:24.677Z,6.97
2022-09-12T08:34:52.506Z,5.57
2022-09-12T08:37:20.314Z,5.53
2022-09-12T08:39:48.112Z,5.72
2022-09-12T08:42:59.217Z,5.05
2022-09-12T08:45:34.838Z,5.72
2022-09-12T08:48:04.830Z,4.43
2022-09-12T08:50:32.855Z,3.47
2022-09-12T08:53:14.197Z,5.22
2022-09-12T08:55:53.557Z,5.03
2022-09-12T08:58:23.648Z,4.40
2022-09-12T09:00:54.069Z,3.40
2022-09-12T09:03:30.204Z,6.32
2022-09-12T09:06:11.987Z,3.97
2022-09-12T09:09:17.473Z,4.28
2022-09-12T09:11:45.976Z,5.28
2022-09-12T09:14:48.066Z,5.13
2022-09-12T09:19:56.573Z,8.38
2022-09-12T09:22:50.917Z,4.53
2022-09-12T09:25:25.784Z,6.15
2022-09-12T09:28:06.069Z,6.13
2022-09-12T09:30:36.207Z,5.38
2022-09-12T09:33:07.635Z,6.85
2022-09-12T09:35:54.218Z,9.15
2022-09-12T09:38:54.214Z,4.38
2022-09-12T09:41:31.004Z,4.30
2022-09-12T09:43:59.756Z,4.80
2022-09-12T09:46:28.220Z,6.05
2022-09-12T09:49:02.792Z,6.28
2022-09-12T09:51:36.653Z,6.70
2022-09-12T09:54:31.671Z,8.38
2022-09-12T09:56:59.485Z,4.93
2022-09-12T09:59:33.313Z,5.95
2022-09-12T10:02:26.604Z,6.25
2022-09-12T10:04:57.667Z,6.40
2022-09-12T10:07:27.297Z,6.88
2022-09-12T10:10:16.511Z,4.35
2022-09-12T10:12:44.922Z,4.43
2022-09-12T10:15:19.756Z,7.95
2022-09-12T10:17:50.659Z,5.78
2022-09-12T10:20:46.517Z,5.53
2022-09-12T10:23:41.154Z,6.82
2022-09-12T10:26:19.242Z,6.05
2022-09-12T10:28:53.595Z,6.15
2022-09-12T10:31:33.366Z,4.47
2022-09-12T10:34:01.607Z,6.72
2022-09-12T10:36:38.148Z,7.22
2022-09-12T10:39:06.973Z,5.63
2022-09-12T10:41:41.243Z,6.95
2022-09-12T10:44:19.200Z,4.38
2022-09-12T10:46:47.272Z,6.47
2022-09-12T10:49:25.695Z,5.95
2022-09-12T10:51:55.587Z,3.97
2022-09-12T10:54:26.954Z,5.70
2022-09-12T10:57:39.673Z,6.45
2022-09-12T11:03:15.393Z,4.65
2022-09-12T11:06:01.524Z,4.10
2022-09-12T11:08:47.509Z,5.32
2022-09-12T11:11:27.291Z,4.55
2022-09-12T11:14:32.545Z,8.23
2022-09-12T11:17:16.630Z,5.20
2022-09-12T11:20:07.432Z,5.50
2022-09-12T11:22:55.722Z,4.85
2022-09-12T11:25:40.474Z,8.55
2022-09-12T11:28:47.408Z,8.40
2022-09-12T11:31:28.047Z,6.22
2022-09-12T11:33:57.634Z,6.13
2022-09-12T11:36:45.765Z,5.70
2022-09-12T11:39:29.142Z,5.50
2022-09-12T11:42:02.297Z,4.95
2022-09-12T11:44:40.280Z,5.00
2022-09-12T11:47:12.428Z,3.22
2022-09-12T11:50:00.433Z,5.57
2022-09-12T11:52:37.414Z,3.53
2022-09-12T11:55:26.142Z,5.20
2022-09-12T11:58:00.874Z,4.80
2022-09-12T12:00:31.822Z,5.90
2022-09-12T12:03:31.396Z,5.50
2022-09-12T12:06:26.785Z,3.47
2022-09-12T12:08:55.209Z,5.40
2022-09-12T12:11:43.278Z,5.10
2022-09-12T12:14:20.025Z,4.40
2022-09-12T12:16:49.483Z,4.05
2022-09-12T12:19:17.305Z,4.68
2022-09-12T12:21:47.446Z,7.32
2022-09-12T12:24:26.731Z,3.03
2022-09-12T12:26:58.671Z,6.38
2022-09-12T12:29:36.320Z,6.63
2022-09-12T12:32:05.840Z,6.70
2022-09-12T12:34:37.497Z,5.13
2022-09-12T12:37:22.705Z,4.10
2022-09-12T12:39:51.247Z,3.38
2022-09-12T12:42:34.688Z,3.85
2022-09-12T12:45:25.408Z,4.32
2022-09-12T12:48:09.980Z,6.00
2022-09-12T12:50:37.919Z,4.75
2022-09-12T12:53:24.899Z,6.03
2022-09-12T12:55:55.620Z,6.38
2022-09-12T12:58:37.500Z,3.83
2022-09-12T13:01:11.479Z,5.57
2022-09-12T13:03:46.775Z,4.85
2022-09-12T13:06:44.489Z,6.72
2022-09-12T13:09:18.098Z,3.63
2022-09-12T13:11:47.062Z,5.20
2022-09-12T13:14:37.099Z,4.82
2022-09-12T13:17:06.858Z,6.00
2022-09-12T13:19:38.188Z,5.20
2022-09-12T13:22:08.876Z,8.27
2022-09-12T13:24:49.162Z,5.90
2022-09-12T13:27:22.256Z,3.88
2022-09-12T13:29:50.473Z,3.67
2022-09-12T13:32:18.762Z,5.47
2022-09-12T13:35:05.254Z,4.13
2022-09-12T13:37:51.360Z,6.40
2022-09-12T13:40:38.011Z,5.80
2022-09-12T13:43:17.784Z,4.05
2022-09-12T13:45:47.574Z,4.85
2022-09-12T13:48:20.732Z,2.97
2022-09-12T13:50:57.101Z,5.18
2022-09-12T13:53:29.660Z,7.63
2022-09-12T13:55:59.689Z,5.53
2022-09-12T13:58:37.004Z,6.45
2022-09-12T14:01:16.160Z,4.38
2022-09-12T14:04:14.305Z,3.25
2022-09-12T14:06:51.033Z,3.05
2022-09-12T14:09:28.897Z,4.35
2022-09-12T14:11:57.803Z,3.97
2022-09-12T14:14:37.380Z,3.58
2022-09-12T14:17:36.225Z,4.32
2022-09-12T14:20:10.160Z,5.65
2022-09-12T14:22:39.604Z,3.83
2022-09-12T14:25:14.227Z,3.58
2022-09-12T14:27:48.049Z,4.65
2022-09-12T14:30:36.656Z,6.53
2022-09-12T14:33:10.313Z,5.03
2022-09-12T14:35:43.830Z,6.35
2022-09-12T14:38:23.384Z,4.32
2022-09-12T14:41:00.093Z,4.57
2022-09-12T14:43:34.065Z,3.10
2022-09-12T14:46:03.832Z,4.03
2022-09-12T14:48:48.817Z,5.78
2022-09-12T14:51:22.375Z,6.07
2022-09-12T14:53:50.636Z,5.45
2022-09-12T14:56:42.747Z,6.07
2022-09-12T14:59:35.502Z,5.95
2022-09-12T15:02:21.483Z,9.35
2022-09-12T15:04:52.342Z,3.97
2022-09-12T15:07:31.758Z,7.53
2022-09-12T15:10:02.007Z,5.53
2022-09-12T15:12:31.500Z,4.83
2022-09-12T15:15:17.983Z,3.17
2022-09-12T15:17:45.757Z,5.38
2022-09-12T15:20:14.793Z,6.85
2022-09-12T15:22:43.560Z,3.17
2022-09-12T15:25:13.481Z,5.72
2022-09-12T15:27:41.304Z,3.70
2022-09-12T15:30:10.409Z,3.97
2022-09-12T15:32:38.888Z,2.78
2022-09-12T15:35:18.909Z,4.72
2022-09-12T15:37:47.019Z,3.20
2022-09-12T15:40:15.123Z,3.40
2022-09-12T15:42:43.169Z,2.85
2022-09-12T15:45:23.753Z,5.03
2022-09-12T15:47:51.973Z,5.55
2022-09-12T15:50:19.764Z,3.00
2022-09-12T15:52:47.927Z,4.95
2022-09-12T15:55:19.216Z,4.57
2022-09-12T15:57:47.804Z,5.75
2022-09-12T16:00:17.600Z,4.07
2022-09-12T16:02:47.429Z,3.47
2022-09-12T16:05:18.509Z,4.35
2022-09-12T16:07:46.628Z,4.78
2022-09-12T16:10:16.317Z,5.40
2022-09-12T16:12:45.493Z,6.30
2022-09-12T16:15:17.099Z,4.93
2022-09-12T16:17:44.899Z,5.25
2022-09-12T16:20:13.154Z,7.03
2022-09-12T16:22:41.222Z,4.43
2022-09-12T16:25:09.616Z,5.03
2022-09-12T16:27:38.842Z,4.22
2022-09-12T16:30:07.771Z,4.30
2022-09-12T16:32:35.690Z,3.67
2022-09-12T16:35:04.496Z,2.58
2022-09-12T16:37:34.625Z,3.10
2022-09-12T16:40:04.506Z,2.92
2022-09-12T16:42:32.626Z,4.85
2022-09-12T16:45:00.643Z,5.60
2022-09-12T16:47:32.188Z,3.50
2022-09-12T16:50:00.008Z,3.03
2022-09-12T16:52:28.795Z,6.32
2022-09-12T16:54:56.544Z,4.60
2022-09-12T16:57:24.280Z,6.63
2022-09-12T16:59:52.226Z,7.55
2022-09-12T17:02:20.485Z,6.05
2022-09-12T17:04:48.903Z,5.45
2022-09-12T17:07:16.756Z,5.70
2022-09-12T17:09:47.871Z,8.18
2022-09-12T17:12:15.865Z,7.78
2022-09-12T17:14:43.655Z,6.55
2022-09-12T17:17:12.188Z,10.65
2022-09-12T17:19:41.121Z,4.78
2022-09-12T17:22:09.238Z,3.97
2022-09-12T17:24:37.080Z,3.65
2022-09-12T17:27:04.918Z,5.35
2022-09-12T17:29:34.451Z,6.03
2022-09-12T17:32:02.595Z,8.23
2022-09-12T17:34:30.453Z,4.32
2022-09-12T17:36:58.491Z,6.65
2022-09-12T17:39:28.981Z,5.82
2022-09-12T17:41:58.927Z,7.75
2022-09-12T17:44:30.077Z,4.65
2022-09-12T17:46:57.838Z,5.18
2022-09-12T17:50:31.452Z,3.88
2022-09-12T17:53:02.176Z,4.78
2022-09-12T17:55:32.538Z,9.68
2022-09-12T17:58:00.999Z,7.63
2022-09-12T18:00:48.323Z,8.95
2022-09-12T18:03:16.759Z,7.97
2022-09-12T18:06:02.596Z,4.78
2022-09-12T18:08:30.399Z,6.72
2022-09-12T18:11:05.396Z,8.57
2022-09-12T18:13:36.400Z,5.47
2022-09-12T18:16:09.971Z,8.55
2022-09-12T18:18:38.931Z,23.88
2022-09-12T18:21:08.528Z,28.98
2022-09-12T18:23:36.591Z,21.40
2022-09-12T18:26:10.297Z,18.25
2022-09-12T18:28:41.025Z,13.48
2022-09-12T18:31:17.550Z,9.82
2022-09-12T18:33:46.365Z,7.13
2022-09-12T18:36:15.672Z,10.75
2022-09-12T18:38:43.982Z,12.77
2022-09-12T18:41:17.860Z,8.15
2022-09-12T18:43:46.494Z,7.18
2022-09-12T18:46:17.179Z,12.07
2022-09-12T18:48:45.958Z,10.52
2022-09-12T18:51:16.476Z,7.95
2022-09-12T18:53:52.955Z,7.65
2022-09-12T18:56:23.049Z,7.70
2022-09-12T18:58:53.100Z,8.07
2022-09-12T19:01:31.337Z,10.32
2022-09-12T19:04:01.056Z,6.32
2022-09-12T19:06:31.966Z,6.53
2022-09-12T19:09:03.883Z,7.30
2022-09-12T19:11:59.880Z,5.40
2022-09-12T19:14:27.810Z,6.93
2022-09-12T19:16:55.654Z,5.60
2022-09-12T19:19:23.451Z,6.93
2022-09-12T19:21:51.231Z,8.95
2022-09-12T19:24:19.551Z,6.97
2022-09-12T19:26:47.937Z,9.15
2022-09-12T19:29:16.771Z,8.88
2022-09-12T19:32:09.557Z,6.70
2022-09-12T19:34:37.285Z,5.77
2022-09-12T19:37:05.149Z,7.18
2022-09-12T19:39:33.100Z,5.18
2022-09-12T19:42:00.983Z,6.43
2022-09-12T19:44:30.334Z,6.65
2022-09-12T19:46:58.482Z,7.80
2022-09-12T19:49:26.344Z,4.88
2022-09-12T19:51:54.144Z,5.47
2022-09-12T19:54:21.947Z,6.35
2022-09-12T19:56:50.546Z,3.53
2022-09-12T19:59:18.456Z,4.80
2022-09-12T20:01:46.379Z,6.07
2022-09-12T20:04:39.437Z,5.82
2022-09-12T20:07:07.375Z,4.40
2022-09-12T20:09:36.040Z,5.93
2022-09-12T20:12:05.316Z,5.63
2022-09-12T20:14:33.106Z,5.68
2022-09-12T20:17:00.867Z,6.55
2022-09-12T20:19:28.761Z,4.97
2022-09-12T20:21:56.569Z,10.75
2022-09-12T20:25:15.212Z,10.60
2022-09-12T20:27:43.291Z,8.57
2022-09-12T20:30:11.608Z,4.80
2022-09-12T20:32:39.414Z,5.65
2022-09-12T20:35:08.208Z,4.88
2022-09-12T20:37:36.192Z,5.50
2022-09-12T20:40:04.667Z,4.72
2022-09-12T20:42:32.643Z,7.57
2022-09-12T20:45:00.386Z,9.65
2022-09-12T20:47:28.157Z,5.50
2022-09-12T20:49:55.983Z,8.63
2022-09-12T20:52:23.868Z,4.60
2022-09-12T20:54:52.138Z,4.55
2022-09-12T20:57:20.025Z,5.55
2022-09-12T20:59:47.808Z,4.60
2022-09-12T21:02:15.983Z,6.68
2022-09-12T21:04:43.913Z,5.15
2022-09-12T21:07:11.623Z,3.65
2022-09-12T21:09:39.801Z,4.85
2022-09-12T21:12:07.635Z,4.30
2022-09-12T21:14:35.499Z,5.78
2022-09-12T21:17:03.885Z,7.25
2022-09-12T21:19:31.720Z,12.73
2022-09-12T21:21:59.612Z,7.40
2022-09-12T21:24:27.374Z,4.53
2022-09-12T21:26:55.654Z,7.57
2022-09-12T21:29:23.394Z,7.85
2022-09-12T21:31:51.853Z,7.30
2022-09-12T21:34:19.814Z,4.20
2022-09-12T21:36:47.683Z,4.85
2022-09-12T21:39:15.433Z,2.95
2022-09-12T21:41:43.508Z,9.95
2022-09-12T21:44:11.415Z,5.20
2022-09-12T21:46:39.253Z,6.38
2022-09-12T21:49:07.123Z,6.55
2022-09-12T21:51:34.945Z,4.90
2022-09-12T21:54:02.764Z,4.82
2022-09-12T21:56:31.163Z,3.97
2022-09-12T21:58:58.999Z,5.57
2022-09-12T22:01:26.829Z,5.47
2022-09-12T22:03:54.688Z,7.38
2022-09-12T22:06:22.738Z,8.73
2022-09-12T22:08:50.522Z,7.80
2022-09-12T22:11:19.832Z,5.45
2022-09-12T22:13:47.675Z,4.72
2022-09-12T22:16:15.605Z,4.88
2022-09-12T22:18:43.818Z,3.97
2022-09-12T22:21:16.065Z,5.10
2022-09-12T22:24:03.654Z,4.90
2022-09-12T22:26:36.506Z,3.85
2022-09-12T22:29:04.295Z,5.43
2022-09-12T22:31:33.349Z,6.40
2022-09-12T22:34:01.139Z,7.05
2022-09-12T22:36:31.290Z,4.97
2022-09-12T22:39:00.162Z,3.35
2022-09-12T22:41:28.579Z,2.47
2022-09-12T22:43:57.407Z,3.90
2022-09-12T22:46:25.582Z,2.45
2022-09-12T22:48:55.631Z,3.17
2022-09-12T22:51:23.701Z,2.80
2022-09-12T22:53:51.725Z,3.22
2022-09-12T22:56:19.550Z,4.90
2022-09-12T22:58:47.767Z,3.78
2022-09-12T23:01:15.640Z,3.53
2022-09-12T23:03:43.772Z,5.28
2022-09-12T23:06:12.274Z,5.53
2022-09-12T23:08:40.327Z,4.95
2022-09-12T23:11:33.536Z,5.30
2022-09-12T23:14:01.315Z,6.10
2022-09-12T23:16:32.082Z,6.05
2022-09-12T23:18:59.931Z,7.10
2022-09-12T23:21:29.983Z,6.95
2022-09-12T23:23:57.773Z,6.68
2022-09-12T23:26:29.703Z,8.07
2022-09-12T23:29:00.030Z,4.85
2022-09-12T23:31:30.347Z,7.00
2022-09-12T23:34:01.904Z,4.78
2022-09-12T23:36:30.351Z,5.07
2022-09-12T23:38:58.385Z,5.80
2022-09-12T23:41:26.403Z,5.70
2022-09-12T23:43:54.468Z,3.28
2022-09-12T23:46:22.507Z,5.10
2022-09-12T23:48:50.612Z,2.95
2022-09-12T23:51:19.350Z,4.13
2022-09-12T23:53:47.125Z,4.60
2022-09-12T23:56:17.672Z,3.13
2022-09-12T23:58:45.474Z,5.47
